sensor_id;sensor_type;location;lat;lon;timestamp;P1;durP1;ratioP1;P2;durP2;ratioP2
37341;SDS011;58643;49.052;8.518;2023-02-08T00:00:56;33.30;;;16.85;;
37341;SDS011;58643;49.052;8.518;2023-02-08T00:03:21;33.97;;;15.75;;
37341;SDS011;58643;49.052;8.518;2023-02-08T00:05:47;33.92;;;17.60;;
37341;SDS011;58643;49.052;8.518;2023-02-08T00:08:13;35.10;;;16.23;;
37341;SDS011;58643;49.052;8.518;2023-02-08T00:10:38;35.80;;;17.20;;
37341;SDS011;58643;49.052;8.518;2023-02-08T00:13:04;32.20;;;15.93;;
37341;SDS011;58643;49.052;8.518;2023-02-08T00:15:30;33.22;;;16.23;;
37341;SDS011;58643;49.052;8.518;2023-02-08T00:17:55;35.78;;;15.65;;
37341;SDS011;58643;49.052;8.518;2023-02-08T00:20:21;32.13;;;16.05;;
37341;SDS011;58643;49.052;8.518;2023-02-08T00:22:47;29.08;;;15.48;;
37341;SDS011;58643;49.052;8.518;2023-02-08T00:25:12;33.42;;;15.23;;
37341;SDS011;58643;49.052;8.518;2023-02-08T00:27:38;29.00;;;14.75;;
37341;SDS011;58643;49.052;8.518;2023-02-08T00:30:03;34.45;;;16.40;;
37341;SDS011;58643;49.052;8.518;2023-02-08T00:32:29;34.78;;;17.67;;
37341;SDS011;58643;49.052;8.518;2023-02-08T00:34:55;36.42;;;17.30;;
37341;SDS011;58643;49.052;8.518;2023-02-08T00:37:21;33.42;;;16.30;;
37341;SDS011;58643;49.052;8.518;2023-02-08T00:39:46;35.38;;;16.30;;
37341;SDS011;58643;49.052;8.518;2023-02-08T00:42:12;32.40;;;15.55;;
37341;SDS011;58643;49.052;8.518;2023-02-08T00:44:37;33.53;;;15.93;;
37341;SDS011;58643;49.052;8.518;2023-02-08T00:47:03;38.67;;;16.77;;
37341;SDS011;58643;49.052;8.518;2023-02-08T00:49:29;33.08;;;16.35;;
37341;SDS011;58643;49.052;8.518;2023-02-08T00:51:54;34.45;;;16.70;;
37341;SDS011;58643;49.052;8.518;2023-02-08T00:54:20;33.75;;;15.55;;
37341;SDS011;58643;49.052;8.518;2023-02-08T00:56:46;32.95;;;15.95;;
37341;SDS011;58643;49.052;8.518;2023-02-08T00:59:12;33.15;;;15.93;;
37341;SDS011;58643;49.052;8.518;2023-02-08T01:01:38;34.78;;;16.27;;
37341;SDS011;58643;49.052;8.518;2023-02-08T01:04:04;32.17;;;14.57;;
37341;SDS011;58643;49.052;8.518;2023-02-08T01:06:30;33.97;;;16.42;;
37341;SDS011;58643;49.052;8.518;2023-02-08T01:08:56;34.80;;;16.48;;
37341;SDS011;58643;49.052;8.518;2023-02-08T01:11:22;32.45;;;15.38;;
37341;SDS011;58643;49.052;8.518;2023-02-08T01:13:49;32.20;;;14.80;;
37341;SDS011;58643;49.052;8.518;2023-02-08T01:16:19;31.42;;;14.45;;
37341;SDS011;58643;49.052;8.518;2023-02-08T01:18:48;29.85;;;15.02;;
37341;SDS011;58643;49.052;8.518;2023-02-08T01:21:16;37.70;;;15.68;;
37341;SDS011;58643;49.052;8.518;2023-02-08T01:23:44;32.58;;;16.15;;
37341;SDS011;58643;49.052;8.518;2023-02-08T01:26:10;34.25;;;15.52;;
37341;SDS011;58643;49.052;8.518;2023-02-08T01:28:36;36.83;;;16.23;;
37341;SDS011;58643;49.052;8.518;2023-02-08T01:31:06;31.92;;;14.93;;
37341;SDS011;58643;49.052;8.518;2023-02-08T01:33:33;33.22;;;15.75;;
37341;SDS011;58643;49.052;8.518;2023-02-08T01:35:59;32.53;;;15.68;;
37341;SDS011;58643;49.052;8.518;2023-02-08T01:38:25;27.13;;;14.40;;
37341;SDS011;58643;49.052;8.518;2023-02-08T01:40:51;34.42;;;15.13;;
37341;SDS011;58643;49.052;8.518;2023-02-08T01:43:23;32.63;;;14.80;;
37341;SDS011;58643;49.052;8.518;2023-02-08T01:45:53;33.20;;;14.40;;
37341;SDS011;58643;49.052;8.518;2023-02-08T01:48:21;39.88;;;14.85;;
37341;SDS011;58643;49.052;8.518;2023-02-08T01:50:54;30.77;;;15.15;;
37341;SDS011;58643;49.052;8.518;2023-02-08T01:53:25;33.08;;;15.40;;
37341;SDS011;58643;49.052;8.518;2023-02-08T01:55:55;29.92;;;14.15;;
37341;SDS011;58643;49.052;8.518;2023-02-08T01:58:23;35.40;;;15.52;;
37341;SDS011;58643;49.052;8.518;2023-02-08T02:00:51;30.13;;;14.23;;
37341;SDS011;58643;49.052;8.518;2023-02-08T02:03:17;31.55;;;14.52;;
37341;SDS011;58643;49.052;8.518;2023-02-08T02:05:46;28.88;;;14.85;;
37341;SDS011;58643;49.052;8.518;2023-02-08T02:08:14;33.20;;;14.68;;
37341;SDS011;58643;49.052;8.518;2023-02-08T02:10:39;33.97;;;14.40;;
37341;SDS011;58643;49.052;8.518;2023-02-08T02:13:08;33.20;;;14.13;;
37341;SDS011;58643;49.052;8.518;2023-02-08T02:15:41;28.02;;;14.15;;
37341;SDS011;58643;49.052;8.518;2023-02-08T02:18:08;30.40;;;13.95;;
37341;SDS011;58643;49.052;8.518;2023-02-08T02:31:48;33.90;;;15.25;;
37341;SDS011;58643;49.052;8.518;2023-02-08T02:36:51;35.70;;;15.02;;
37341;SDS011;58643;49.052;8.518;2023-02-08T02:39:34;30.77;;;14.80;;
37341;SDS011;58643;49.052;8.518;2023-02-08T02:42:12;32.40;;;14.32;;
37341;SDS011;58643;49.052;8.518;2023-02-08T02:50:45;34.25;;;16.10;;
37341;SDS011;58643;49.052;8.518;2023-02-08T02:55:44;35.13;;;15.35;;
37341;SDS011;58643;49.052;8.518;2023-02-08T02:58:14;35.10;;;14.95;;
37341;SDS011;58643;49.052;8.518;2023-02-08T03:00:43;34.45;;;14.35;;
37341;SDS011;58643;49.052;8.518;2023-02-08T03:03:21;28.58;;;14.10;;
37341;SDS011;58643;49.052;8.518;2023-02-08T03:05:49;39.70;;;15.10;;
37341;SDS011;58643;49.052;8.518;2023-02-08T03:08:30;30.88;;;15.55;;
37341;SDS011;58643;49.052;8.518;2023-02-08T03:11:20;34.03;;;15.02;;
37341;SDS011;58643;49.052;8.518;2023-02-08T03:13:55;35.80;;;15.30;;
37341;SDS011;58643;49.052;8.518;2023-02-08T03:21:27;33.97;;;15.23;;
37341;SDS011;58643;49.052;8.518;2023-02-08T03:26:59;34.33;;;15.75;;
37341;SDS011;58643;49.052;8.518;2023-02-08T03:32:10;34.80;;;14.57;;
37341;SDS011;58643;49.052;8.518;2023-02-08T03:35:01;29.98;;;14.40;;
37341;SDS011;58643;49.052;8.518;2023-02-08T03:37:29;31.42;;;14.57;;
37341;SDS011;58643;49.052;8.518;2023-02-08T03:40:02;33.63;;;14.77;;
37341;SDS011;58643;49.052;8.518;2023-02-08T03:42:35;33.30;;;14.57;;
37341;SDS011;58643;49.052;8.518;2023-02-08T03:45:21;34.95;;;15.75;;
37341;SDS011;58643;49.052;8.518;2023-02-08T03:47:52;33.78;;;14.82;;
37341;SDS011;58643;49.052;8.518;2023-02-08T03:50:20;32.78;;;15.32;;
37341;SDS011;58643;49.052;8.518;2023-02-08T03:52:47;31.27;;;14.80;;
37341;SDS011;58643;49.052;8.518;2023-02-08T03:55:20;31.02;;;13.98;;
37341;SDS011;58643;49.052;8.518;2023-02-08T03:57:57;30.83;;;13.95;;
37341;SDS011;58643;49.052;8.518;2023-02-08T04:00:27;31.67;;;13.68;;
37341;SDS011;58643;49.052;8.518;2023-02-08T04:02:58;27.73;;;13.95;;
37341;SDS011;58643;49.052;8.518;2023-02-08T04:05:30;33.45;;;14.48;;
37341;SDS011;58643;49.052;8.518;2023-02-08T04:07:57;27.65;;;14.32;;
37341;SDS011;58643;49.052;8.518;2023-02-08T04:10:22;30.85;;;13.85;;
37341;SDS011;58643;49.052;8.518;2023-02-08T04:12:48;28.48;;;14.30;;
37341;SDS011;58643;49.052;8.518;2023-02-08T04:15:14;31.35;;;15.77;;
37341;SDS011;58643;49.052;8.518;2023-02-08T04:17:40;30.17;;;13.93;;
37341;SDS011;58643;49.052;8.518;2023-02-08T04:20:05;26.63;;;13.80;;
37341;SDS011;58643;49.052;8.518;2023-02-08T04:22:31;31.42;;;14.82;;
37341;SDS011;58643;49.052;8.518;2023-02-08T04:24:57;33.03;;;14.30;;
37341;SDS011;58643;49.052;8.518;2023-02-08T04:27:23;36.65;;;14.82;;
37341;SDS011;58643;49.052;8.518;2023-02-08T04:29:49;32.38;;;15.77;;
37341;SDS011;58643;49.052;8.518;2023-02-08T04:32:15;40.10;;;15.43;;
37341;SDS011;58643;49.052;8.518;2023-02-08T04:34:40;27.88;;;14.00;;
37341;SDS011;58643;49.052;8.518;2023-02-08T04:37:06;34.25;;;14.02;;
37341;SDS011;58643;49.052;8.518;2023-02-08T04:39:32;30.42;;;14.68;;
37341;SDS011;58643;49.052;8.518;2023-02-08T04:41:58;33.97;;;14.73;;
37341;SDS011;58643;49.052;8.518;2023-02-08T04:44:24;35.55;;;14.93;;
37341;SDS011;58643;49.052;8.518;2023-02-08T04:46:49;33.00;;;14.98;;
37341;SDS011;58643;49.052;8.518;2023-02-08T04:49:15;33.25;;;14.52;;
37341;SDS011;58643;49.052;8.518;2023-02-08T04:51:40;32.63;;;15.50;;
37341;SDS011;58643;49.052;8.518;2023-02-08T04:54:06;33.90;;;14.50;;
37341;SDS011;58643;49.052;8.518;2023-02-08T04:56:32;31.60;;;15.18;;
37341;SDS011;58643;49.052;8.518;2023-02-08T04:58:58;31.50;;;14.13;;
37341;SDS011;58643;49.052;8.518;2023-02-08T05:01:24;30.60;;;13.82;;
37341;SDS011;58643;49.052;8.518;2023-02-08T05:03:49;28.80;;;12.93;;
37341;SDS011;58643;49.052;8.518;2023-02-08T05:06:15;32.30;;;14.10;;
37341;SDS011;58643;49.052;8.518;2023-02-08T05:08:41;28.85;;;13.77;;
37341;SDS011;58643;49.052;8.518;2023-02-08T05:11:06;28.88;;;13.60;;
37341;SDS011;58643;49.052;8.518;2023-02-08T05:13:32;30.63;;;13.70;;
37341;SDS011;58643;49.052;8.518;2023-02-08T05:15:58;29.88;;;14.82;;
37341;SDS011;58643;49.052;8.518;2023-02-08T05:18:23;30.98;;;13.65;;
37341;SDS011;58643;49.052;8.518;2023-02-08T05:20:58;29.10;;;13.15;;
37341;SDS011;58643;49.052;8.518;2023-02-08T05:23:25;29.73;;;13.30;;
37341;SDS011;58643;49.052;8.518;2023-02-08T05:25:51;30.35;;;13.90;;
37341;SDS011;58643;49.052;8.518;2023-02-08T05:28:17;27.52;;;13.15;;
37341;SDS011;58643;49.052;8.518;2023-02-08T05:30:44;28.48;;;14.15;;
37341;SDS011;58643;49.052;8.518;2023-02-08T05:33:10;31.98;;;14.52;;
37341;SDS011;58643;49.052;8.518;2023-02-08T05:35:35;33.35;;;13.68;;
37341;SDS011;58643;49.052;8.518;2023-02-08T05:38:01;35.35;;;14.77;;
37341;SDS011;58643;49.052;8.518;2023-02-08T05:40:27;29.25;;;14.65;;
37341;SDS011;58643;49.052;8.518;2023-02-08T05:42:52;31.88;;;13.95;;
37341;SDS011;58643;49.052;8.518;2023-02-08T05:45:18;33.08;;;14.95;;
37341;SDS011;58643;49.052;8.518;2023-02-08T05:47:43;33.65;;;14.75;;
37341;SDS011;58643;49.052;8.518;2023-02-08T05:50:11;30.77;;;14.43;;
37341;SDS011;58643;49.052;8.518;2023-02-08T05:52:37;37.92;;;14.98;;
37341;SDS011;58643;49.052;8.518;2023-02-08T05:55:03;28.48;;;13.27;;
37341;SDS011;58643;49.052;8.518;2023-02-08T05:57:29;28.67;;;13.93;;
37341;SDS011;58643;49.052;8.518;2023-02-08T05:59:55;30.00;;;13.75;;
37341;SDS011;58643;49.052;8.518;2023-02-08T06:02:21;29.85;;;13.32;;
37341;SDS011;58643;49.052;8.518;2023-02-08T06:04:46;30.38;;;14.60;;
37341;SDS011;58643;49.052;8.518;2023-02-08T06:07:12;30.52;;;14.18;;
37341;SDS011;58643;49.052;8.518;2023-02-08T06:09:38;27.45;;;13.55;;
37341;SDS011;58643;49.052;8.518;2023-02-08T06:12:03;27.15;;;13.35;;
37341;SDS011;58643;49.052;8.518;2023-02-08T06:14:29;27.83;;;13.65;;
37341;SDS011;58643;49.052;8.518;2023-02-08T06:16:54;28.05;;;13.95;;
37341;SDS011;58643;49.052;8.518;2023-02-08T06:19:20;36.13;;;14.60;;
37341;SDS011;58643;49.052;8.518;2023-02-08T06:21:46;32.22;;;15.48;;
37341;SDS011;58643;49.052;8.518;2023-02-08T06:24:11;27.92;;;13.93;;
37341;SDS011;58643;49.052;8.518;2023-02-08T06:26:38;43.05;;;17.48;;
37341;SDS011;58643;49.052;8.518;2023-02-08T06:29:03;28.20;;;14.50;;
37341;SDS011;58643;49.052;8.518;2023-02-08T06:31:29;28.30;;;13.13;;
37341;SDS011;58643;49.052;8.518;2023-02-08T06:33:55;31.73;;;13.65;;
37341;SDS011;58643;49.052;8.518;2023-02-08T06:36:21;28.75;;;13.27;;
37341;SDS011;58643;49.052;8.518;2023-02-08T06:38:46;30.75;;;14.68;;
37341;SDS011;58643;49.052;8.518;2023-02-08T06:41:12;34.65;;;14.90;;
37341;SDS011;58643;49.052;8.518;2023-02-08T06:43:37;27.10;;;13.95;;
37341;SDS011;58643;49.052;8.518;2023-02-08T06:46:04;35.92;;;15.60;;
37341;SDS011;58643;49.052;8.518;2023-02-08T06:48:32;35.85;;;15.77;;
37341;SDS011;58643;49.052;8.518;2023-02-08T06:50:58;37.22;;;15.25;;
37341;SDS011;58643;49.052;8.518;2023-02-08T06:53:24;35.38;;;14.63;;
37341;SDS011;58643;49.052;8.518;2023-02-08T06:55:50;31.33;;;13.93;;
37341;SDS011;58643;49.052;8.518;2023-02-08T06:58:16;36.17;;;15.82;;
37341;SDS011;58643;49.052;8.518;2023-02-08T07:00:42;30.67;;;14.07;;
37341;SDS011;58643;49.052;8.518;2023-02-08T07:03:09;34.40;;;15.02;;
37341;SDS011;58643;49.052;8.518;2023-02-08T07:05:36;30.80;;;14.52;;
37341;SDS011;58643;49.052;8.518;2023-02-08T07:08:03;32.65;;;14.38;;
37341;SDS011;58643;49.052;8.518;2023-02-08T07:10:29;36.13;;;15.38;;
37341;SDS011;58643;49.052;8.518;2023-02-08T07:12:55;31.80;;;15.10;;
37341;SDS011;58643;49.052;8.518;2023-02-08T07:15:20;36.20;;;15.80;;
37341;SDS011;58643;49.052;8.518;2023-02-08T07:17:46;36.17;;;14.45;;
37341;SDS011;58643;49.052;8.518;2023-02-08T07:20:11;30.58;;;14.52;;
37341;SDS011;58643;49.052;8.518;2023-02-08T07:22:38;31.70;;;14.32;;
37341;SDS011;58643;49.052;8.518;2023-02-08T07:25:04;30.20;;;15.50;;
37341;SDS011;58643;49.052;8.518;2023-02-08T07:27:31;36.50;;;16.58;;
37341;SDS011;58643;49.052;8.518;2023-02-08T07:29:57;38.05;;;16.63;;
37341;SDS011;58643;49.052;8.518;2023-02-08T07:32:22;40.85;;;17.55;;
37341;SDS011;58643;49.052;8.518;2023-02-08T07:34:48;42.50;;;16.90;;
37341;SDS011;58643;49.052;8.518;2023-02-08T07:37:14;49.10;;;18.33;;
37341;SDS011;58643;49.052;8.518;2023-02-08T07:39:39;45.83;;;18.77;;
37341;SDS011;58643;49.052;8.518;2023-02-08T07:42:06;51.80;;;19.67;;
37341;SDS011;58643;49.052;8.518;2023-02-08T07:44:38;52.08;;;19.63;;
37341;SDS011;58643;49.052;8.518;2023-02-08T07:47:04;53.42;;;19.52;;
37341;SDS011;58643;49.052;8.518;2023-02-08T07:49:31;47.22;;;19.23;;
37341;SDS011;58643;49.052;8.518;2023-02-08T07:51:58;35.05;;;16.33;;
37341;SDS011;58643;49.052;8.518;2023-02-08T07:54:24;31.95;;;15.65;;
37341;SDS011;58643;49.052;8.518;2023-02-08T07:56:50;37.75;;;16.15;;
37341;SDS011;58643;49.052;8.518;2023-02-08T07:59:15;34.55;;;16.05;;
37341;SDS011;58643;49.052;8.518;2023-02-08T08:01:41;35.33;;;14.80;;
37341;SDS011;58643;49.052;8.518;2023-02-08T08:04:07;43.70;;;16.48;;
37341;SDS011;58643;49.052;8.518;2023-02-08T08:06:33;34.88;;;15.30;;
37341;SDS011;58643;49.052;8.518;2023-02-08T08:08:58;40.58;;;17.23;;
37341;SDS011;58643;49.052;8.518;2023-02-08T08:11:24;35.80;;;16.38;;
37341;SDS011;58643;49.052;8.518;2023-02-08T08:13:50;32.88;;;15.52;;
37341;SDS011;58643;49.052;8.518;2023-02-08T08:16:16;33.15;;;16.15;;
37341;SDS011;58643;49.052;8.518;2023-02-08T08:18:42;34.63;;;16.05;;
37341;SDS011;58643;49.052;8.518;2023-02-08T08:21:08;38.00;;;16.33;;
37341;SDS011;58643;49.052;8.518;2023-02-08T08:23:34;39.20;;;16.63;;
37341;SDS011;58643;49.052;8.518;2023-02-08T08:26:05;31.90;;;14.70;;
37341;SDS011;58643;49.052;8.518;2023-02-08T08:28:35;31.98;;;14.95;;
37341;SDS011;58643;49.052;8.518;2023-02-08T08:31:01;32.88;;;14.38;;
37341;SDS011;58643;49.052;8.518;2023-02-08T08:33:26;30.20;;;14.27;;
37341;SDS011;58643;49.052;8.518;2023-02-08T08:35:52;30.33;;;14.63;;
37341;SDS011;58643;49.052;8.518;2023-02-08T08:38:18;26.00;;;13.27;;
37341;SDS011;58643;49.052;8.518;2023-02-08T08:40:43;22.70;;;11.98;;
37341;SDS011;58643;49.052;8.518;2023-02-08T08:43:09;22.15;;;11.75;;
37341;SDS011;58643;49.052;8.518;2023-02-08T08:45:34;28.55;;;13.07;;
37341;SDS011;58643;49.052;8.518;2023-02-08T08:48:01;23.73;;;11.80;;
37341;SDS011;58643;49.052;8.518;2023-02-08T08:50:27;25.40;;;12.80;;
37341;SDS011;58643;49.052;8.518;2023-02-08T08:52:53;20.55;;;11.40;;
37341;SDS011;58643;49.052;8.518;2023-02-08T08:55:18;25.85;;;11.75;;
37341;SDS011;58643;49.052;8.518;2023-02-08T08:57:44;22.10;;;11.77;;
37341;SDS011;58643;49.052;8.518;2023-02-08T09:00:10;21.75;;;10.82;;
37341;SDS011;58643;49.052;8.518;2023-02-08T09:02:36;19.83;;;10.77;;
37341;SDS011;58643;49.052;8.518;2023-02-08T09:05:01;26.30;;;12.32;;
37341;SDS011;58643;49.052;8.518;2023-02-08T09:07:29;23.05;;;11.15;;
37341;SDS011;58643;49.052;8.518;2023-02-08T09:09:55;24.17;;;11.45;;
37341;SDS011;58643;49.052;8.518;2023-02-08T09:12:20;20.60;;;11.10;;
37341;SDS011;58643;49.052;8.518;2023-02-08T09:14:46;25.55;;;12.27;;
37341;SDS011;58643;49.052;8.518;2023-02-08T09:17:11;26.58;;;11.70;;
37341;SDS011;58643;49.052;8.518;2023-02-08T09:19:37;27.45;;;13.07;;
37341;SDS011;58643;49.052;8.518;2023-02-08T09:22:04;21.88;;;11.73;;
37341;SDS011;58643;49.052;8.518;2023-02-08T09:24:31;21.13;;;11.98;;
37341;SDS011;58643;49.052;8.518;2023-02-08T09:26:57;23.48;;;12.75;;
37341;SDS011;58643;49.052;8.518;2023-02-08T09:29:23;23.48;;;12.35;;
37341;SDS011;58643;49.052;8.518;2023-02-08T09:31:48;22.23;;;12.18;;
37341;SDS011;58643;49.052;8.518;2023-02-08T09:34:14;23.90;;;12.30;;
37341;SDS011;58643;49.052;8.518;2023-02-08T09:36:40;23.05;;;11.57;;
37341;SDS011;58643;49.052;8.518;2023-02-08T09:39:11;19.75;;;9.88;;
37341;SDS011;58643;49.052;8.518;2023-02-08T09:41:43;18.40;;;10.65;;
37341;SDS011;58643;49.052;8.518;2023-02-08T09:46:42;21.92;;;12.25;;
37341;SDS011;58643;49.052;8.518;2023-02-08T09:49:17;20.65;;;11.68;;
37341;SDS011;58643;49.052;8.518;2023-02-08T09:51:53;20.30;;;11.50;;
37341;SDS011;58643;49.052;8.518;2023-02-08T09:54:44;20.75;;;11.23;;
37341;SDS011;58643;49.052;8.518;2023-02-08T09:57:15;21.13;;;10.50;;
37341;SDS011;58643;49.052;8.518;2023-02-08T09:59:51;20.95;;;11.20;;
37341;SDS011;58643;49.052;8.518;2023-02-08T10:02:24;23.00;;;12.68;;
37341;SDS011;58643;49.052;8.518;2023-02-08T10:07:19;17.38;;;10.77;;
37341;SDS011;58643;49.052;8.518;2023-02-08T10:09:45;19.35;;;10.80;;
37341;SDS011;58643;49.052;8.518;2023-02-08T10:17:38;20.35;;;11.35;;
37341;SDS011;58643;49.052;8.518;2023-02-08T10:20:55;22.13;;;11.02;;
37341;SDS011;58643;49.052;8.518;2023-02-08T10:26:03;17.30;;;10.13;;
37341;SDS011;58643;49.052;8.518;2023-02-08T10:34:02;20.80;;;10.95;;
37341;SDS011;58643;49.052;8.518;2023-02-08T10:36:41;19.35;;;11.15;;
37341;SDS011;58643;49.052;8.518;2023-02-08T10:39:17;20.15;;;11.07;;
37341;SDS011;58643;49.052;8.518;2023-02-08T10:41:49;18.10;;;10.98;;
37341;SDS011;58643;49.052;8.518;2023-02-08T10:52:31;15.65;;;9.15;;
37341;SDS011;58643;49.052;8.518;2023-02-08T10:54:57;18.10;;;11.00;;
37341;SDS011;58643;49.052;8.518;2023-02-08T10:57:24;16.90;;;9.52;;
37341;SDS011;58643;49.052;8.518;2023-02-08T10:59:58;17.83;;;9.98;;
37341;SDS011;58643;49.052;8.518;2023-02-08T11:02:32;19.85;;;10.05;;
37341;SDS011;58643;49.052;8.518;2023-02-08T11:05:04;17.58;;;10.13;;
37341;SDS011;58643;49.052;8.518;2023-02-08T11:07:32;17.77;;;9.80;;
37341;SDS011;58643;49.052;8.518;2023-02-08T11:12:42;14.70;;;8.93;;
37341;SDS011;58643;49.052;8.518;2023-02-08T11:15:30;19.42;;;10.20;;
37341;SDS011;58643;49.052;8.518;2023-02-08T11:18:21;16.90;;;9.60;;
37341;SDS011;58643;49.052;8.518;2023-02-08T11:20:50;20.27;;;10.43;;
37341;SDS011;58643;49.052;8.518;2023-02-08T11:23:22;21.15;;;10.43;;
37341;SDS011;58643;49.052;8.518;2023-02-08T11:28:37;18.30;;;10.23;;
37341;SDS011;58643;49.052;8.518;2023-02-08T11:31:08;18.50;;;10.77;;
37341;SDS011;58643;49.052;8.518;2023-02-08T11:34:00;17.42;;;9.57;;
37341;SDS011;58643;49.052;8.518;2023-02-08T11:36:27;18.83;;;11.05;;
37341;SDS011;58643;49.052;8.518;2023-02-08T11:38:54;18.38;;;10.38;;
37341;SDS011;58643;49.052;8.518;2023-02-08T11:41:19;19.88;;;9.98;;
37341;SDS011;58643;49.052;8.518;2023-02-08T11:43:54;20.40;;;10.50;;
37341;SDS011;58643;49.052;8.518;2023-02-08T11:46:26;21.67;;;10.18;;
37341;SDS011;58643;49.052;8.518;2023-02-08T11:48:53;27.27;;;10.38;;
37341;SDS011;58643;49.052;8.518;2023-02-08T11:51:35;21.23;;;10.77;;
37341;SDS011;58643;49.052;8.518;2023-02-08T11:54:02;21.63;;;11.15;;
37341;SDS011;58643;49.052;8.518;2023-02-08T11:56:30;19.40;;;10.43;;
37341;SDS011;58643;49.052;8.518;2023-02-08T11:59:08;17.30;;;10.52;;
37341;SDS011;58643;49.052;8.518;2023-02-08T12:01:45;19.80;;;10.68;;
37341;SDS011;58643;49.052;8.518;2023-02-08T12:04:11;17.35;;;9.40;;
37341;SDS011;58643;49.052;8.518;2023-02-08T12:18:13;18.77;;;10.80;;
37341;SDS011;58643;49.052;8.518;2023-02-08T12:21:08;16.67;;;9.90;;
37341;SDS011;58643;49.052;8.518;2023-02-08T12:23:52;16.35;;;9.77;;
37341;SDS011;58643;49.052;8.518;2023-02-08T12:26:37;22.38;;;10.48;;
37341;SDS011;58643;49.052;8.518;2023-02-08T12:29:13;17.77;;;9.63;;
37341;SDS011;58643;49.052;8.518;2023-02-08T12:34:21;17.38;;;10.00;;
37341;SDS011;58643;49.052;8.518;2023-02-08T12:45:52;19.20;;;10.63;;
37341;SDS011;58643;49.052;8.518;2023-02-08T12:51:19;21.08;;;10.25;;
37341;SDS011;58643;49.052;8.518;2023-02-08T12:54:11;17.40;;;9.88;;
37341;SDS011;58643;49.052;8.518;2023-02-08T12:56:42;19.70;;;10.45;;
37341;SDS011;58643;49.052;8.518;2023-02-08T13:01:45;16.92;;;10.13;;
37341;SDS011;58643;49.052;8.518;2023-02-08T13:04:19;19.48;;;10.75;;
37341;SDS011;58643;49.052;8.518;2023-02-08T13:06:51;16.88;;;9.63;;
37341;SDS011;58643;49.052;8.518;2023-02-08T13:09:27;19.65;;;10.32;;
37341;SDS011;58643;49.052;8.518;2023-02-08T13:17:02;18.08;;;10.60;;
37341;SDS011;58643;49.052;8.518;2023-02-08T13:22:41;18.23;;;9.88;;
37341;SDS011;58643;49.052;8.518;2023-02-08T13:25:14;17.75;;;9.75;;
37341;SDS011;58643;49.052;8.518;2023-02-08T13:28:01;20.23;;;9.23;;
37341;SDS011;58643;49.052;8.518;2023-02-08T13:30:28;17.17;;;10.02;;
37341;SDS011;58643;49.052;8.518;2023-02-08T13:32:55;18.38;;;10.05;;
37341;SDS011;58643;49.052;8.518;2023-02-08T13:35:26;18.30;;;10.55;;
37341;SDS011;58643;49.052;8.518;2023-02-08T13:38:04;19.05;;;9.90;;
37341;SDS011;58643;49.052;8.518;2023-02-08T13:40:40;18.08;;;8.80;;
37341;SDS011;58643;49.052;8.518;2023-02-08T13:43:28;17.50;;;9.52;;
37341;SDS011;58643;49.052;8.518;2023-02-08T13:46:07;14.25;;;8.90;;
37341;SDS011;58643;49.052;8.518;2023-02-08T13:48:42;17.95;;;9.32;;
37341;SDS011;58643;49.052;8.518;2023-02-08T13:59:53;16.90;;;9.30;;
37341;SDS011;58643;49.052;8.518;2023-02-08T14:07:58;16.50;;;7.80;;
37341;SDS011;58643;49.052;8.518;2023-02-08T14:10:30;16.38;;;8.98;;
37341;SDS011;58643;49.052;8.518;2023-02-08T14:19:00;14.55;;;7.68;;
37341;SDS011;58643;49.052;8.518;2023-02-08T14:24:06;15.80;;;7.78;;
37341;SDS011;58643;49.052;8.518;2023-02-08T14:26:44;17.38;;;8.45;;
37341;SDS011;58643;49.052;8.518;2023-02-08T14:29:15;15.30;;;8.25;;
37341;SDS011;58643;49.052;8.518;2023-02-08T14:31:47;14.90;;;7.78;;
37341;SDS011;58643;49.052;8.518;2023-02-08T14:34:37;14.68;;;7.90;;
37341;SDS011;58643;49.052;8.518;2023-02-08T14:37:03;17.90;;;8.38;;
37341;SDS011;58643;49.052;8.518;2023-02-08T14:39:49;13.75;;;7.90;;
37341;SDS011;58643;49.052;8.518;2023-02-08T14:51:01;15.65;;;8.93;;
37341;SDS011;58643;49.052;8.518;2023-02-08T14:53:56;11.85;;;7.88;;
37341;SDS011;58643;49.052;8.518;2023-02-08T14:56:31;11.52;;;7.00;;
37341;SDS011;58643;49.052;8.518;2023-02-08T14:59:04;14.65;;;8.23;;
37341;SDS011;58643;49.052;8.518;2023-02-08T15:04:07;14.68;;;8.02;;
37341;SDS011;58643;49.052;8.518;2023-02-08T15:11:36;13.98;;;8.00;;
37341;SDS011;58643;49.052;8.518;2023-02-08T15:14:04;15.18;;;7.53;;
37341;SDS011;58643;49.052;8.518;2023-02-08T15:16:35;12.23;;;7.15;;
37341;SDS011;58643;49.052;8.518;2023-02-08T15:19:06;13.43;;;6.90;;
37341;SDS011;58643;49.052;8.518;2023-02-08T15:21:33;14.30;;;7.95;;
37341;SDS011;58643;49.052;8.518;2023-02-08T15:24:20;13.43;;;6.97;;
37341;SDS011;58643;49.052;8.518;2023-02-08T15:26:52;11.73;;;7.28;;
37341;SDS011;58643;49.052;8.518;2023-02-08T15:29:26;13.23;;;7.20;;
37341;SDS011;58643;49.052;8.518;2023-02-08T15:31:53;13.93;;;7.65;;
37341;SDS011;58643;49.052;8.518;2023-02-08T15:34:20;16.52;;;8.20;;
37341;SDS011;58643;49.052;8.518;2023-02-08T15:36:49;14.13;;;7.22;;
37341;SDS011;58643;49.052;8.518;2023-02-08T15:39:35;16.38;;;8.30;;
37341;SDS011;58643;49.052;8.518;2023-02-08T15:42:03;16.05;;;6.72;;
37341;SDS011;58643;49.052;8.518;2023-02-08T15:44:30;12.23;;;6.18;;
37341;SDS011;58643;49.052;8.518;2023-02-08T15:46:58;14.95;;;7.03;;
37341;SDS011;58643;49.052;8.518;2023-02-08T15:49:30;10.85;;;6.38;;
37341;SDS011;58643;49.052;8.518;2023-02-08T15:51:59;13.50;;;6.90;;
37341;SDS011;58643;49.052;8.518;2023-02-08T15:54:26;12.73;;;6.10;;
37341;SDS011;58643;49.052;8.518;2023-02-08T15:59:21;13.23;;;6.65;;
37341;SDS011;58643;49.052;8.518;2023-02-08T16:01:50;11.35;;;6.28;;
37341;SDS011;58643;49.052;8.518;2023-02-08T16:04:17;20.60;;;7.05;;
37341;SDS011;58643;49.052;8.518;2023-02-08T16:06:50;13.18;;;6.47;;
37341;SDS011;58643;49.052;8.518;2023-02-08T16:09:19;16.35;;;6.78;;
37341;SDS011;58643;49.052;8.518;2023-02-08T16:11:49;15.30;;;6.40;;
37341;SDS011;58643;49.052;8.518;2023-02-08T16:14:17;12.82;;;6.95;;
37341;SDS011;58643;49.052;8.518;2023-02-08T16:16:49;11.82;;;6.63;;
37341;SDS011;58643;49.052;8.518;2023-02-08T16:19:21;12.68;;;6.95;;
37341;SDS011;58643;49.052;8.518;2023-02-08T16:21:49;10.38;;;5.78;;
37341;SDS011;58643;49.052;8.518;2023-02-08T16:26:50;13.43;;;6.88;;
37341;SDS011;58643;49.052;8.518;2023-02-08T16:29:25;14.35;;;6.43;;
37341;SDS011;58643;49.052;8.518;2023-02-08T16:31:59;16.90;;;7.60;;
37341;SDS011;58643;49.052;8.518;2023-02-08T16:34:31;15.20;;;6.90;;
37341;SDS011;58643;49.052;8.518;2023-02-08T16:36:59;12.70;;;6.73;;
37341;SDS011;58643;49.052;8.518;2023-02-08T16:39:36;13.48;;;6.97;;
37341;SDS011;58643;49.052;8.518;2023-02-08T16:42:18;15.55;;;7.10;;
37341;SDS011;58643;49.052;8.518;2023-02-08T16:44:59;11.65;;;6.35;;
37341;SDS011;58643;49.052;8.518;2023-02-08T16:47:51;16.65;;;8.95;;
37341;SDS011;58643;49.052;8.518;2023-02-08T16:50:22;16.55;;;8.57;;
37341;SDS011;58643;49.052;8.518;2023-02-08T16:52:54;16.65;;;7.70;;
37341;SDS011;58643;49.052;8.518;2023-02-08T16:55:26;15.50;;;7.70;;
37341;SDS011;58643;49.052;8.518;2023-02-08T16:57:54;16.30;;;7.22;;
37341;SDS011;58643;49.052;8.518;2023-02-08T17:02:52;15.75;;;6.80;;
37341;SDS011;58643;49.052;8.518;2023-02-08T17:05:19;19.63;;;7.28;;